createdAt,value
2018-08-11T00:00:29.207Z,100045.00
2018-08-11T00:02:59.122Z,100039.00
2018-08-11T00:05:29.026Z,100043.00
2018-08-11T00:07:58.918Z,100040.00
2018-08-11T00:10:28.865Z,100040.00
2018-08-11T00:12:58.746Z,100036.00
2018-08-11T00:15:28.643Z,100030.00
2018-08-11T00:17:58.526Z,100032.00
2018-08-11T00:20:29.943Z,100021.00
2018-08-11T00:22:59.834Z,100022.00
2018-08-11T00:25:29.737Z,100021.00
2018-08-11T00:27:59.628Z,100021.00
2018-08-11T00:30:29.523Z,100020.00
2018-08-11T00:33:02.707Z,100020.00
2018-08-11T00:35:32.597Z,100024.00
2018-08-11T00:38:02.498Z,100025.00
2018-08-11T00:40:32.403Z,100026.00
2018-08-11T00:43:02.291Z,100027.00
2018-08-11T00:45:32.206Z,100026.00
2018-08-11T00:48:02.118Z,100025.00
2018-08-11T00:50:34.935Z,100031.00
2018-08-11T00:53:05.893Z,100029.00
2018-08-11T00:55:35.801Z,100027.00
2018-08-11T00:58:05.850Z,100032.00
2018-08-11T01:00:35.753Z,100033.00
2018-08-11T01:03:06.283Z,100033.00
2018-08-11T01:05:36.190Z,100033.00
2018-08-11T01:08:06.085Z,100033.00
2018-08-11T01:10:35.974Z,100029.00
2018-08-11T01:13:06.231Z,100035.00
2018-08-11T01:15:36.123Z,100034.00
2018-08-11T01:18:06.153Z,100036.00
2018-08-11T01:20:36.051Z,100033.00
2018-08-11T01:23:05.945Z,100027.00
2018-08-11T01:25:43.149Z,100029.00
2018-08-11T01:28:13.059Z,100023.00
2018-08-11T01:30:42.950Z,100027.00
2018-08-11T01:33:12.830Z,100031.00
2018-08-11T01:35:42.727Z,100030.00
2018-08-11T01:38:12.614Z,100031.00
2018-08-11T01:40:42.505Z,100026.00
2018-08-11T01:43:12.382Z,100028.00
2018-08-11T01:45:42.278Z,100028.00
2018-08-11T01:48:12.164Z,100022.00
2018-08-11T01:50:42.055Z,100024.00
2018-08-11T01:53:11.934Z,100024.00
2018-08-11T01:55:41.842Z,100026.00
2018-08-11T01:58:11.750Z,100026.00
2018-08-11T02:00:41.648Z,100026.00
2018-08-11T02:03:11.522Z,100027.00
2018-08-11T02:05:41.422Z,100023.00
2018-08-11T02:08:11.306Z,100024.00
2018-08-11T02:10:41.196Z,100026.00
2018-08-11T02:13:11.079Z,100018.00
2018-08-11T02:15:40.980Z,100012.00
2018-08-11T02:18:10.862Z,100018.00
2018-08-11T02:20:40.750Z,100014.00
2018-08-11T02:23:10.652Z,100018.00
2018-08-11T02:25:40.531Z,100016.00
2018-08-11T02:28:10.411Z,100022.00
2018-08-11T02:30:40.309Z,100020.00
2018-08-11T02:33:10.243Z,100022.00
2018-08-11T02:35:40.115Z,100022.00
2018-08-11T02:38:10.075Z,100022.00
2018-08-11T02:40:39.971Z,100019.00
2018-08-11T02:43:09.856Z,100017.00
2018-08-11T02:45:39.758Z,100019.00
2018-08-11T02:48:09.639Z,100020.00
2018-08-11T02:50:39.542Z,100024.00
2018-08-11T02:53:09.441Z,100023.00
2018-08-11T02:55:39.314Z,100023.00
2018-08-11T02:58:09.194Z,100024.00
2018-08-11T03:00:39.093Z,100021.00
2018-08-11T03:03:08.974Z,100023.00
2018-08-11T03:05:38.869Z,100029.00
2018-08-11T03:08:08.775Z,100018.00
2018-08-11T03:10:43.966Z,100020.00
2018-08-11T03:13:16.136Z,100019.00
2018-08-11T03:15:46.051Z,100021.00
2018-08-11T03:18:15.931Z,100021.00
2018-08-11T03:20:45.817Z,100022.00
2018-08-11T03:23:15.702Z,100020.00
2018-08-11T03:25:45.605Z,100014.00
2018-08-11T03:28:15.511Z,100014.00
2018-08-11T03:30:45.400Z,100016.00
2018-08-11T03:33:20.642Z,100015.00
2018-08-11T03:35:50.530Z,100014.00
2018-08-11T03:38:20.414Z,100017.00
2018-08-11T03:40:50.298Z,100020.00
2018-08-11T03:43:20.173Z,100020.00
2018-08-11T03:45:50.065Z,100024.00
2018-08-11T03:48:19.970Z,100022.00
2018-08-11T03:50:49.861Z,100025.00
2018-08-11T03:53:19.743Z,100027.00
2018-08-11T03:55:49.640Z,100024.00
2018-08-11T03:58:19.526Z,100026.00
2018-08-11T04:00:49.422Z,100022.00
2018-08-11T04:03:19.316Z,100026.00
2018-08-11T04:05:49.198Z,100025.00
2018-08-11T04:08:19.226Z,100034.00
2018-08-11T04:10:49.149Z,100031.00
2018-08-11T04:13:19.069Z,100031.00
2018-08-11T04:15:49.089Z,100037.00
2018-08-11T04:18:18.937Z,100035.00
2018-08-11T04:20:48.871Z,100034.00
2018-08-11T04:23:18.753Z,100034.00
2018-08-11T04:25:48.750Z,100041.00
2018-08-11T04:28:18.665Z,100047.00
2018-08-11T04:30:48.757Z,100044.00
2018-08-11T04:33:18.708Z,100043.00
2018-08-11T04:35:48.606Z,100045.00
2018-08-11T04:38:18.598Z,100046.00
2018-08-11T04:40:48.482Z,100047.00
2018-08-11T04:43:18.402Z,100050.00
2018-08-11T04:45:48.338Z,100051.00
2018-08-11T04:48:18.291Z,100054.00
2018-08-11T04:50:48.431Z,100057.00
2018-08-11T04:53:18.390Z,100060.00
2018-08-11T04:55:48.378Z,100060.00
2018-08-11T04:58:18.454Z,100064.00
2018-08-11T05:00:48.378Z,100060.00
2018-08-11T05:03:18.339Z,100064.00
2018-08-11T05:05:48.230Z,100064.00
2018-08-11T05:08:18.218Z,100065.00
2018-08-11T05:10:48.117Z,100070.00
2018-08-11T05:13:18.062Z,100077.00
2018-08-11T05:15:47.947Z,100081.00
2018-08-11T05:18:18.239Z,100085.00
2018-08-11T05:20:48.095Z,100087.00
2018-08-11T05:23:17.982Z,100085.00
2018-08-11T05:25:47.900Z,100082.00
2018-08-11T05:28:17.890Z,100085.00
2018-08-11T05:30:52.198Z,100087.00
2018-08-11T05:33:22.086Z,100086.00
2018-08-11T05:35:51.986Z,100088.00
2018-08-11T05:38:21.877Z,100091.00
2018-08-11T05:40:51.774Z,100092.00
2018-08-11T05:43:21.655Z,100091.00
2018-08-11T05:45:51.554Z,100088.00
2018-08-11T05:48:21.450Z,100090.00
2018-08-11T05:50:51.370Z,100087.00
2018-08-11T05:53:21.306Z,100093.00
2018-08-11T05:55:51.203Z,100104.00
2018-08-11T05:58:21.094Z,100109.00
2018-08-11T06:00:51.023Z,100111.00
2018-08-11T06:03:20.878Z,100108.00
2018-08-11T06:05:50.769Z,100109.00
2018-08-11T06:08:20.739Z,100106.00
2018-08-11T06:10:50.616Z,100107.00
2018-08-11T06:13:20.498Z,100107.00
2018-08-11T06:15:50.383Z,100112.00
2018-08-11T06:18:20.278Z,100112.00
2018-08-11T06:20:50.191Z,100113.00
2018-08-11T06:23:20.098Z,100121.00
2018-08-11T06:25:50.063Z,100124.00
2018-08-11T06:28:19.946Z,100125.00
2018-08-11T06:30:49.846Z,100127.00
2018-08-11T06:33:19.914Z,100129.00
2018-08-11T06:35:49.881Z,100133.00
2018-08-11T06:38:19.775Z,100131.00
2018-08-11T06:40:49.762Z,100131.00
2018-08-11T06:43:19.786Z,100135.00
2018-08-11T06:45:49.666Z,100132.00
2018-08-11T06:48:19.558Z,100132.00
2018-08-11T06:50:49.458Z,100136.00
2018-08-11T06:53:19.363Z,100141.00
2018-08-11T06:55:54.501Z,100136.00
2018-08-11T06:58:24.511Z,100135.00
2018-08-11T07:00:54.386Z,100136.00
2018-08-11T07:03:25.692Z,100136.00
2018-08-11T07:05:59.758Z,100140.00
2018-08-11T07:08:29.650Z,100139.00
2018-08-11T07:11:06.613Z,100143.00
2018-08-11T07:13:36.509Z,100139.00
2018-08-11T07:16:06.400Z,100144.00
2018-08-11T07:18:36.298Z,100140.00
2018-08-11T07:21:06.200Z,100145.00
2018-08-11T07:23:36.127Z,100142.00
2018-08-11T07:26:06.022Z,100146.00
2018-08-11T07:28:35.906Z,100149.00
2018-08-11T07:31:11.166Z,100153.00
2018-08-11T07:33:41.072Z,100147.00
2018-08-11T07:36:10.982Z,100147.00
2018-08-11T07:38:40.875Z,100144.00
2018-08-11T07:41:10.794Z,100149.00
2018-08-11T07:43:47.396Z,100142.00
2018-08-11T07:46:17.278Z,100140.00
2018-08-11T07:48:47.201Z,100141.00
2018-08-11T07:51:17.126Z,100143.00
2018-08-11T07:53:47.162Z,100145.00
2018-08-11T07:56:17.051Z,100143.00
2018-08-11T07:58:46.942Z,100142.00
2018-08-11T08:01:16.875Z,100144.00
2018-08-11T08:03:46.727Z,100143.00
2018-08-11T08:06:16.622Z,100144.00
2018-08-11T08:08:46.531Z,100136.00
2018-08-11T08:11:16.419Z,100137.00
2018-08-11T08:13:46.363Z,100138.00
2018-08-11T08:16:16.208Z,100135.00
2018-08-11T08:18:46.106Z,100136.00
2018-08-11T08:21:15.999Z,100135.00
2018-08-11T08:23:45.965Z,100135.00
2018-08-11T08:26:15.902Z,100134.00
2018-08-11T08:28:45.759Z,100142.00
2018-08-11T08:31:15.638Z,100138.00
2018-08-11T08:33:45.753Z,100142.00
2018-08-11T08:36:15.586Z,100144.00
2018-08-11T08:38:45.487Z,100146.00
2018-08-11T08:41:15.507Z,100147.00
2018-08-11T08:43:45.402Z,100150.00
2018-08-11T08:46:15.294Z,100147.00
2018-08-11T08:48:45.186Z,100148.00
2018-08-11T08:51:15.238Z,100145.00
2018-08-11T08:53:45.590Z,100144.00
2018-08-11T08:56:15.551Z,100143.00
2018-08-11T08:58:45.542Z,100139.00
2018-08-11T09:01:15.522Z,100138.00
2018-08-11T09:03:45.425Z,100135.00
2018-08-11T09:06:15.335Z,100131.00
2018-08-11T09:08:45.222Z,100132.00
2018-08-11T09:11:15.151Z,100131.00
2018-08-11T09:13:45.069Z,100128.00
2018-08-11T09:16:14.970Z,100127.00
2018-08-11T09:18:44.875Z,100122.00
2018-08-11T09:21:14.758Z,100126.00
2018-08-11T09:23:44.653Z,100123.00
2018-08-11T09:26:14.567Z,100127.00
2018-08-11T09:28:44.471Z,100126.00
2018-08-11T09:31:14.359Z,100131.00
2018-08-11T09:33:44.682Z,100131.00
2018-08-11T09:36:14.654Z,100129.00
2018-08-11T09:38:44.578Z,100129.00
2018-08-11T09:41:14.478Z,100128.00
2018-08-11T09:43:44.487Z,100125.00
2018-08-11T09:46:14.416Z,100127.00
2018-08-11T09:48:50.950Z,100127.00
2018-08-11T09:51:20.840Z,100126.00
2018-08-11T09:53:50.738Z,100122.00
2018-08-11T09:56:20.629Z,100116.00
2018-08-11T09:58:50.592Z,100118.00
2018-08-11T10:01:25.686Z,100116.00
2018-08-11T10:03:55.583Z,100106.00
2018-08-11T10:06:25.474Z,100099.00
2018-08-11T10:08:55.374Z,100099.00
2018-08-11T10:11:25.266Z,100095.00
2018-08-11T10:13:55.164Z,100094.00
2018-08-11T10:16:25.050Z,100094.00
2018-08-11T10:18:54.968Z,100082.00
2018-08-11T10:21:24.858Z,100086.00
2018-08-11T10:23:55.579Z,100090.00
2018-08-11T10:26:25.582Z,100084.00
2018-08-11T10:28:55.478Z,100081.00
2018-08-11T10:31:25.371Z,100077.00
2018-08-11T10:33:55.269Z,100071.00
2018-08-11T10:36:31.608Z,100068.00
2018-08-11T10:39:01.578Z,100071.00
2018-08-11T10:41:31.594Z,100072.00
2018-08-11T10:44:01.488Z,100057.00
2018-08-11T10:46:31.359Z,100058.00
2018-08-11T10:49:01.255Z,100059.00
2018-08-11T10:51:31.150Z,100056.00
2018-08-11T10:54:07.646Z,100049.00
2018-08-11T10:56:37.547Z,100051.00
2018-08-11T10:59:07.448Z,100046.00
2018-08-11T11:01:37.374Z,100048.00
2018-08-11T11:04:07.262Z,100045.00
2018-08-11T11:06:37.154Z,100041.00
2018-08-11T11:09:09.439Z,100045.00
2018-08-11T11:11:39.773Z,100052.00
2018-08-11T11:14:09.680Z,100048.00
2018-08-11T11:16:39.569Z,100037.00
2018-08-11T11:19:09.459Z,100041.00
2018-08-11T11:21:39.353Z,100047.00
2018-08-11T11:24:09.239Z,100048.00
2018-08-11T11:26:39.127Z,100040.00
2018-08-11T11:29:09.018Z,100024.00
2018-08-11T11:31:38.926Z,100036.00
2018-08-11T11:34:08.818Z,100039.00
2018-08-11T11:36:38.706Z,100037.00
2018-08-11T11:39:09.257Z,100033.00
2018-08-11T11:41:39.475Z,100028.00
2018-08-11T11:44:09.628Z,100030.00
2018-08-11T11:46:39.516Z,100022.00
2018-08-11T11:49:09.413Z,100015.00
2018-08-11T11:51:39.346Z,100022.00
2018-08-11T11:54:09.205Z,100028.00
2018-08-11T11:56:39.091Z,100018.00
2018-08-11T11:59:08.989Z,100028.00
2018-08-11T12:01:39.098Z,100024.00
2018-08-11T12:04:08.994Z,100019.00
2018-08-11T12:06:38.890Z,100017.00
2018-08-11T12:09:10.319Z,100019.00
2018-08-11T12:11:40.605Z,100021.00
2018-08-11T12:14:10.591Z,100021.00
2018-08-11T12:16:40.496Z,100014.00
2018-08-11T12:19:10.383Z,100013.00
2018-08-11T12:21:40.270Z,100012.00
2018-08-11T12:24:10.181Z,100005.00
2018-08-11T12:26:40.064Z,100006.00
2018-08-11T12:29:09.954Z,100002.00
2018-08-11T12:31:39.842Z,100007.00
2018-08-11T12:34:09.734Z,100005.00
2018-08-11T12:36:39.685Z,100008.00
2018-08-11T12:39:10.753Z,100000.00
2018-08-11T12:41:41.322Z,99997.00
2018-08-11T12:44:11.785Z,99999.00
2018-08-11T12:46:41.686Z,100002.00
2018-08-11T12:49:11.569Z,99991.00
2018-08-11T12:51:41.458Z,99992.00
2018-08-11T12:54:11.346Z,99987.00
2018-08-11T12:56:41.234Z,99985.00
2018-08-11T12:59:11.123Z,99991.00
2018-08-11T13:01:41.049Z,99992.00
2018-08-11T13:04:10.902Z,99995.00
2018-08-11T13:06:40.802Z,100000.00
2018-08-11T13:09:11.098Z,99991.00
2018-08-11T13:11:47.616Z,99991.00
2018-08-11T13:14:17.499Z,99987.00
2018-08-11T13:16:47.419Z,99994.00
2018-08-11T13:19:17.384Z,99991.00
2018-08-11T13:21:47.262Z,99995.00
2018-08-11T13:24:17.192Z,99998.00
2018-08-11T13:26:47.081Z,99996.00
2018-08-11T13:29:16.966Z,99996.00
2018-08-11T13:31:53.474Z,100000.00
2018-08-11T13:34:23.363Z,99998.00
2018-08-11T13:36:53.242Z,100002.00
2018-08-11T13:39:23.129Z,99992.00
2018-08-11T13:41:53.009Z,99995.00
2018-08-11T13:44:22.890Z,99992.00
2018-08-11T13:46:52.782Z,99986.00
2018-08-11T13:49:22.723Z,99987.00
2018-08-11T13:51:52.606Z,99991.00
2018-08-11T13:54:22.564Z,99983.00
2018-08-11T13:56:52.390Z,99976.00
2018-08-11T13:59:22.273Z,99976.00
2018-08-11T14:01:52.159Z,99971.00
2018-08-11T14:04:22.035Z,99969.00
2018-08-11T14:06:51.924Z,99972.00
2018-08-11T14:09:21.801Z,99973.00
2018-08-11T14:11:51.690Z,99976.00
2018-08-11T14:14:21.602Z,99971.00
2018-08-11T14:16:51.511Z,99978.00
2018-08-11T14:19:21.379Z,99973.00
2018-08-11T14:21:51.262Z,99970.00
2018-08-11T14:24:21.186Z,99964.00
2018-08-11T14:26:51.090Z,99966.00
2018-08-11T14:29:20.979Z,99961.00
2018-08-11T14:31:50.890Z,99969.00
2018-08-11T14:34:20.783Z,99958.00
2018-08-11T14:36:50.703Z,99967.00
2018-08-11T14:39:20.614Z,99958.00
2018-08-11T14:41:50.515Z,99958.00
2018-08-11T14:44:20.414Z,99957.00
2018-08-11T14:46:50.306Z,99953.00
2018-08-11T14:49:20.199Z,99941.00
2018-08-11T14:51:50.098Z,99951.00
2018-08-11T14:54:20.003Z,99940.00
2018-08-11T14:56:50.105Z,99945.00
2018-08-11T14:59:20.023Z,99944.00
2018-08-11T15:01:49.914Z,99943.00
2018-08-11T15:04:19.818Z,99945.00
2018-08-11T15:06:49.757Z,99942.00
2018-08-11T15:09:19.702Z,99936.00
2018-08-11T15:11:49.593Z,99936.00
2018-08-11T15:14:19.483Z,99933.00
2018-08-11T15:16:49.386Z,99933.00
2018-08-11T15:19:19.270Z,99927.00
2018-08-11T15:21:49.163Z,99929.00
2018-08-11T15:24:19.262Z,99920.00
2018-08-11T15:26:49.191Z,99910.00
2018-08-11T15:29:19.082Z,99919.00
2018-08-11T15:31:48.973Z,99918.00
2018-08-11T15:34:18.866Z,99917.00
2018-08-11T15:36:48.771Z,99914.00
2018-08-11T15:39:18.659Z,99908.00
2018-08-11T15:41:48.603Z,99912.00
2018-08-11T15:44:18.487Z,99910.00
2018-08-11T15:46:48.368Z,99920.00
2018-08-11T15:49:18.305Z,99911.00
2018-08-11T15:51:48.201Z,99917.00
2018-08-11T15:54:18.185Z,99912.00
2018-08-11T15:56:48.005Z,99912.00
2018-08-11T15:59:17.898Z,99912.00
2018-08-11T16:01:47.814Z,99912.00
2018-08-11T16:04:17.703Z,99906.00
2018-08-11T16:06:47.590Z,99912.00
2018-08-11T16:09:17.502Z,99921.00
2018-08-11T16:11:47.386Z,99916.00
2018-08-11T16:14:17.302Z,99917.00
2018-08-11T16:16:47.238Z,99916.00
2018-08-11T16:19:17.126Z,99913.00
2018-08-11T16:21:47.031Z,99911.00
2018-08-11T16:24:17.026Z,99913.00
2018-08-11T16:26:46.954Z,99920.00
2018-08-11T16:29:16.901Z,99919.00
2018-08-11T16:31:46.855Z,99916.00
2018-08-11T16:34:17.758Z,99912.00
2018-08-11T16:36:47.644Z,99910.00
2018-08-11T16:39:17.611Z,99910.00
2018-08-11T16:41:47.450Z,99915.00
2018-08-11T16:44:17.362Z,99913.00
2018-08-11T16:46:47.285Z,99905.00
2018-08-11T16:49:17.170Z,99904.00
2018-08-11T16:51:47.375Z,99908.00
2018-08-11T16:54:17.318Z,99913.00
2018-08-11T16:56:50.166Z,99910.00
2018-08-11T16:59:20.477Z,99912.00
2018-08-11T17:01:50.336Z,99913.00
2018-08-11T17:04:20.214Z,99917.00
2018-08-11T17:06:50.110Z,99918.00
2018-08-11T17:09:19.990Z,99919.00
2018-08-11T17:11:49.890Z,99920.00
2018-08-11T17:14:19.769Z,99921.00
2018-08-11T17:16:49.654Z,99920.00
2018-08-11T17:19:19.587Z,99918.00
2018-08-11T17:21:49.518Z,99917.00
2018-08-11T17:24:19.403Z,99914.00
2018-08-11T17:26:49.294Z,99912.00
2018-08-11T17:29:19.180Z,99914.00
2018-08-11T17:31:49.071Z,99912.00
2018-08-11T17:34:18.949Z,99916.00
2018-08-11T17:36:48.846Z,99916.00
2018-08-11T17:39:18.722Z,99913.00
2018-08-11T17:41:48.606Z,99915.00
2018-08-11T17:44:18.511Z,99917.00
2018-08-11T17:46:48.590Z,99917.00
2018-08-11T17:49:18.485Z,99907.00
2018-08-11T17:51:48.455Z,99910.00
2018-08-11T17:54:18.296Z,99910.00
2018-08-11T17:56:48.178Z,99911.00
2018-08-11T17:59:18.054Z,99910.00
2018-08-11T18:01:47.958Z,99909.00
2018-08-11T18:04:17.873Z,99910.00
2018-08-11T18:06:47.803Z,99914.00
2018-08-11T18:09:17.759Z,99911.00
2018-08-11T18:11:48.362Z,99914.00
2018-08-11T18:14:18.398Z,99915.00
2018-08-11T18:16:48.289Z,99915.00
2018-08-11T18:19:18.286Z,99916.00
2018-08-11T18:21:48.517Z,99913.00
2018-08-11T18:24:18.524Z,99918.00
2018-08-11T18:26:48.603Z,99913.00
2018-08-11T18:29:18.492Z,99916.00
2018-08-11T18:31:48.371Z,99913.00
2018-08-11T18:34:18.259Z,99914.00
2018-08-11T18:36:48.144Z,99917.00
2018-08-11T18:39:18.110Z,99915.00
2018-08-11T18:41:47.999Z,99914.00
2018-08-11T18:44:17.899Z,99916.00
2018-08-11T18:46:47.782Z,99918.00
2018-08-11T18:49:17.698Z,99919.00
2018-08-11T18:51:48.508Z,99919.00
2018-08-11T18:54:18.404Z,99921.00
2018-08-11T18:56:48.293Z,99927.00
2018-08-11T18:59:18.603Z,99930.00
2018-08-11T19:01:48.618Z,99930.00
2018-08-11T19:04:18.535Z,99926.00
2018-08-11T19:06:48.415Z,99928.00
2018-08-11T19:09:18.306Z,99929.00
2018-08-11T19:11:48.355Z,99936.00
2018-08-11T19:14:18.326Z,99938.00
2018-08-11T19:16:48.234Z,99937.00
2018-08-11T19:19:18.126Z,99942.00
2018-08-11T19:21:48.042Z,99942.00
2018-08-11T19:24:18.107Z,99939.00
2018-08-11T19:26:47.999Z,99941.00
2018-08-11T19:29:17.963Z,99939.00
2018-08-11T19:31:47.850Z,99948.00
2018-08-11T19:34:17.766Z,99947.00
2018-08-11T19:36:47.791Z,99955.00
2018-08-11T19:39:17.774Z,99950.00
2018-08-11T19:41:47.774Z,99950.00
2018-08-11T19:44:17.673Z,99954.00
2018-08-11T19:46:54.529Z,99956.00
2018-08-11T19:49:24.568Z,99950.00
2018-08-11T19:51:54.460Z,99952.00
2018-08-11T19:54:24.390Z,99954.00
2018-08-11T19:56:54.757Z,99956.00
2018-08-11T19:59:25.893Z,99959.00
2018-08-11T20:01:55.980Z,99957.00
2018-08-11T20:04:25.878Z,99954.00
2018-08-11T20:06:55.754Z,99956.00
2018-08-11T20:09:25.645Z,99952.00
2018-08-11T20:11:55.634Z,99954.00
2018-08-11T20:14:25.519Z,99958.00
2018-08-11T20:16:55.439Z,99953.00
2018-08-11T20:19:25.564Z,99952.00
2018-08-11T20:21:55.222Z,99952.00
2018-08-11T20:24:26.894Z,99958.00
2018-08-11T20:26:56.799Z,99962.00
2018-08-11T20:29:26.668Z,99956.00
2018-08-11T20:31:56.559Z,99957.00
2018-08-11T20:34:26.487Z,99955.00
2018-08-11T20:36:56.731Z,99952.00
2018-08-11T20:39:26.846Z,99953.00
2018-08-11T20:41:58.098Z,99954.00
2018-08-11T20:44:58.852Z,99950.00
2018-08-11T20:47:28.797Z,99952.00
2018-08-11T20:49:58.603Z,99953.00
2018-08-11T20:52:28.454Z,99954.00
2018-08-11T20:54:58.350Z,99958.00
2018-08-11T20:57:29.173Z,99960.00
2018-08-11T20:59:59.636Z,99955.00
2018-08-11T21:02:29.575Z,99958.00
2018-08-11T21:04:59.488Z,99960.00
2018-08-11T21:07:29.450Z,99959.00
2018-08-11T21:09:59.343Z,99964.00
2018-08-11T21:12:29.250Z,99966.00
2018-08-11T21:14:59.248Z,99966.00
2018-08-11T21:17:29.147Z,99965.00
2018-08-11T21:19:59.042Z,99965.00
2018-08-11T21:22:28.937Z,99962.00
2018-08-11T21:24:58.843Z,99960.00
2018-08-11T21:27:28.759Z,99960.00
2018-08-11T21:29:58.638Z,99957.00
2018-08-11T21:32:28.539Z,99960.00
2018-08-11T21:34:58.421Z,99955.00
2018-08-11T21:37:28.322Z,99956.00
2018-08-11T21:39:58.303Z,99961.00
2018-08-11T21:42:28.193Z,99952.00
2018-08-11T21:44:58.086Z,99955.00
2018-08-11T21:47:27.983Z,99952.00
2018-08-11T21:49:57.886Z,99956.00
2018-08-11T21:52:27.777Z,99956.00
2018-08-11T21:54:57.691Z,99957.00
2018-08-11T21:57:27.601Z,99954.00
2018-08-11T21:59:57.494Z,99954.00
2018-08-11T22:02:27.393Z,99959.00
2018-08-11T22:04:57.274Z,99962.00
2018-08-11T22:07:27.177Z,99967.00
2018-08-11T22:09:57.066Z,99962.00
2018-08-11T22:12:26.969Z,99960.00
2018-08-11T22:14:56.861Z,99959.00
2018-08-11T22:17:26.754Z,99963.00
2018-08-11T22:19:56.651Z,99959.00
2018-08-11T22:22:26.541Z,99959.00
2018-08-11T22:24:56.435Z,99955.00
2018-08-11T22:27:26.325Z,99947.00
2018-08-11T22:29:56.222Z,99949.00
2018-08-11T22:32:26.122Z,99952.00
2018-08-11T22:34:56.010Z,99948.00
2018-08-11T22:37:25.912Z,99949.00
2018-08-11T22:39:55.793Z,99952.00
2018-08-11T22:42:32.671Z,99945.00
2018-08-11T22:45:02.558Z,99944.00
2018-08-11T22:47:32.476Z,99941.00
2018-08-11T22:50:02.395Z,99944.00
2018-08-11T22:52:32.299Z,99944.00
2018-08-11T22:56:26.693Z,99944.00
2018-08-11T22:58:56.557Z,99941.00
2018-08-11T23:01:26.470Z,99940.00
2018-08-11T23:03:56.350Z,99941.00
2018-08-11T23:06:26.256Z,99936.00
2018-08-11T23:08:56.154Z,99931.00
2018-08-11T23:11:26.062Z,99933.00
2018-08-11T23:13:58.272Z,99928.00
2018-08-11T23:16:28.171Z,99928.00
2018-08-11T23:18:58.071Z,99926.00
2018-08-11T23:21:28.003Z,99924.00
2018-08-11T23:23:57.894Z,99920.00
2018-08-11T23:26:28.194Z,99922.00
2018-08-11T23:28:58.128Z,99925.00
2018-08-11T23:31:28.057Z,99926.00
2018-08-11T23:33:57.949Z,99923.00
2018-08-11T23:36:27.887Z,99922.00
2018-08-11T23:38:57.787Z,99919.00
2018-08-11T23:41:27.709Z,99916.00
2018-08-11T23:43:57.623Z,99914.00
2018-08-11T23:46:27.530Z,99907.00
2018-08-11T23:48:57.550Z,99911.00
2018-08-11T23:51:27.470Z,99914.00
2018-08-11T23:53:57.426Z,99910.00
2018-08-11T23:56:27.328Z,99905.00
2018-08-11T23:58:57.152Z,99904.00
